sensor_id;sensor_type;location;lat;lon;timestamp;P1;durP1;ratioP1;P2;durP2;ratioP2
43706;SDS011;61348;53.392;-6.248;2023-12-20T00:01:11;14.27;;;3.13;;
43706;SDS011;61348;53.392;-6.248;2023-12-20T00:03:39;19.88;;;4.55;;
43706;SDS011;61348;53.392;-6.248;2023-12-20T00:06:09;12.73;;;2.70;;
43706;SDS011;61348;53.392;-6.248;2023-12-20T00:08:37;23.90;;;4.07;;
43706;SDS011;61348;53.392;-6.248;2023-12-20T00:11:04;15.70;;;3.90;;
43706;SDS011;61348;53.392;-6.248;2023-12-20T00:13:31;12.35;;;3.03;;
43706;SDS011;61348;53.392;-6.248;2023-12-20T00:15:59;11.80;;;2.53;;
43706;SDS011;61348;53.392;-6.248;2023-12-20T00:18:26;14.52;;;2.83;;
43706;SDS011;61348;53.392;-6.248;2023-12-20T00:20:54;11.63;;;3.85;;
43706;SDS011;61348;53.392;-6.248;2023-12-20T00:23:22;13.75;;;2.60;;
43706;SDS011;61348;53.392;-6.248;2023-12-20T00:25:50;16.75;;;2.72;;
43706;SDS011;61348;53.392;-6.248;2023-12-20T00:28:18;23.05;;;5.15;;
43706;SDS011;61348;53.392;-6.248;2023-12-20T00:30:47;11.77;;;3.58;;
43706;SDS011;61348;53.392;-6.248;2023-12-20T00:33:15;15.55;;;3.97;;
43706;SDS011;61348;53.392;-6.248;2023-12-20T00:35:42;15.32;;;2.60;;
43706;SDS011;61348;53.392;-6.248;2023-12-20T00:38:10;11.77;;;3.35;;
43706;SDS011;61348;53.392;-6.248;2023-12-20T00:40:38;16.15;;;3.20;;
43706;SDS011;61348;53.392;-6.248;2023-12-20T00:43:05;9.73;;;2.95;;
43706;SDS011;61348;53.392;-6.248;2023-12-20T00:45:33;17.25;;;3.17;;
43706;SDS011;61348;53.392;-6.248;2023-12-20T00:48:00;13.68;;;2.95;;
43706;SDS011;61348;53.392;-6.248;2023-12-20T00:50:27;20.25;;;4.07;;
43706;SDS011;61348;53.392;-6.248;2023-12-20T00:52:59;14.85;;;3.05;;
43706;SDS011;61348;53.392;-6.248;2023-12-20T00:55:27;11.90;;;2.38;;
43706;SDS011;61348;53.392;-6.248;2023-12-20T00:57:54;20.02;;;2.58;;
43706;SDS011;61348;53.392;-6.248;2023-12-20T01:00:21;11.95;;;2.60;;
43706;SDS011;61348;53.392;-6.248;2023-12-20T01:02:49;12.52;;;2.40;;
43706;SDS011;61348;53.392;-6.248;2023-12-20T01:05:18;16.08;;;2.53;;
43706;SDS011;61348;53.392;-6.248;2023-12-20T01:07:46;14.00;;;2.72;;
43706;SDS011;61348;53.392;-6.248;2023-12-20T01:10:15;21.33;;;4.95;;
43706;SDS011;61348;53.392;-6.248;2023-12-20T01:12:43;10.25;;;2.08;;
43706;SDS011;61348;53.392;-6.248;2023-12-20T01:15:11;13.15;;;4.78;;
43706;SDS011;61348;53.392;-6.248;2023-12-20T01:17:38;18.27;;;3.30;;
43706;SDS011;61348;53.392;-6.248;2023-12-20T01:20:05;14.20;;;3.10;;
43706;SDS011;61348;53.392;-6.248;2023-12-20T01:22:33;17.92;;;2.70;;
43706;SDS011;61348;53.392;-6.248;2023-12-20T01:25:02;13.82;;;2.80;;
43706;SDS011;61348;53.392;-6.248;2023-12-20T01:27:30;15.95;;;3.17;;
43706;SDS011;61348;53.392;-6.248;2023-12-20T01:29:58;18.80;;;2.90;;
43706;SDS011;61348;53.392;-6.248;2023-12-20T01:32:25;12.98;;;2.85;;
43706;SDS011;61348;53.392;-6.248;2023-12-20T01:34:53;16.92;;;2.58;;
43706;SDS011;61348;53.392;-6.248;2023-12-20T01:37:22;15.27;;;2.42;;
43706;SDS011;61348;53.392;-6.248;2023-12-20T01:39:50;10.07;;;2.53;;
43706;SDS011;61348;53.392;-6.248;2023-12-20T01:42:19;11.68;;;2.63;;
43706;SDS011;61348;53.392;-6.248;2023-12-20T01:44:47;10.93;;;2.38;;
43706;SDS011;61348;53.392;-6.248;2023-12-20T01:47:15;17.77;;;3.90;;
43706;SDS011;61348;53.392;-6.248;2023-12-20T01:49:42;13.25;;;2.20;;
43706;SDS011;61348;53.392;-6.248;2023-12-20T01:52:10;8.20;;;2.40;;
43706;SDS011;61348;53.392;-6.248;2023-12-20T01:54:39;18.25;;;6.03;;
43706;SDS011;61348;53.392;-6.248;2023-12-20T01:57:08;15.90;;;2.88;;
43706;SDS011;61348;53.392;-6.248;2023-12-20T01:59:38;9.75;;;2.20;;
43706;SDS011;61348;53.392;-6.248;2023-12-20T02:02:06;10.43;;;3.10;;
43706;SDS011;61348;53.392;-6.248;2023-12-20T02:04:35;11.02;;;2.05;;
43706;SDS011;61348;53.392;-6.248;2023-12-20T02:07:02;7.35;;;2.83;;
43706;SDS011;61348;53.392;-6.248;2023-12-20T02:09:30;13.57;;;3.15;;
43706;SDS011;61348;53.392;-6.248;2023-12-20T02:11:58;6.55;;;2.45;;
43706;SDS011;61348;53.392;-6.248;2023-12-20T02:14:27;19.38;;;3.45;;
43706;SDS011;61348;53.392;-6.248;2023-12-20T02:16:54;14.20;;;2.33;;
43706;SDS011;61348;53.392;-6.248;2023-12-20T02:19:21;8.07;;;1.88;;
43706;SDS011;61348;53.392;-6.248;2023-12-20T02:21:49;10.48;;;1.67;;
43706;SDS011;61348;53.392;-6.248;2023-12-20T02:24:16;7.00;;;2.13;;
43706;SDS011;61348;53.392;-6.248;2023-12-20T02:26:44;7.90;;;1.75;;
43706;SDS011;61348;53.392;-6.248;2023-12-20T02:29:13;20.02;;;2.58;;
43706;SDS011;61348;53.392;-6.248;2023-12-20T02:31:40;9.35;;;2.10;;
43706;SDS011;61348;53.392;-6.248;2023-12-20T02:34:07;10.88;;;1.58;;
43706;SDS011;61348;53.392;-6.248;2023-12-20T02:36:35;13.77;;;2.00;;
43706;SDS011;61348;53.392;-6.248;2023-12-20T02:39:02;11.50;;;2.33;;
43706;SDS011;61348;53.392;-6.248;2023-12-20T02:41:31;14.32;;;1.95;;
43706;SDS011;61348;53.392;-6.248;2023-12-20T02:43:58;10.98;;;1.70;;
43706;SDS011;61348;53.392;-6.248;2023-12-20T02:46:25;8.63;;;1.55;;
43706;SDS011;61348;53.392;-6.248;2023-12-20T02:48:54;10.60;;;1.98;;
43706;SDS011;61348;53.392;-6.248;2023-12-20T02:51:21;9.18;;;1.92;;
43706;SDS011;61348;53.392;-6.248;2023-12-20T02:53:48;7.18;;;1.60;;
43706;SDS011;61348;53.392;-6.248;2023-12-20T02:56:16;9.93;;;1.42;;
43706;SDS011;61348;53.392;-6.248;2023-12-20T02:58:43;11.45;;;4.25;;
43706;SDS011;61348;53.392;-6.248;2023-12-20T03:01:11;2.90;;;1.05;;
43706;SDS011;61348;53.392;-6.248;2023-12-20T03:03:38;10.32;;;1.17;;
43706;SDS011;61348;53.392;-6.248;2023-12-20T03:06:05;10.30;;;2.30;;
43706;SDS011;61348;53.392;-6.248;2023-12-20T03:08:33;6.38;;;1.65;;
43706;SDS011;61348;53.392;-6.248;2023-12-20T03:11:00;4.93;;;1.63;;
43706;SDS011;61348;53.392;-6.248;2023-12-20T03:13:28;7.70;;;2.30;;
43706;SDS011;61348;53.392;-6.248;2023-12-20T03:15:55;10.18;;;1.35;;
43706;SDS011;61348;53.392;-6.248;2023-12-20T03:18:22;7.43;;;1.60;;
43706;SDS011;61348;53.392;-6.248;2023-12-20T03:20:50;9.23;;;2.55;;
43706;SDS011;61348;53.392;-6.248;2023-12-20T03:23:17;7.15;;;1.20;;
43706;SDS011;61348;53.392;-6.248;2023-12-20T03:25:45;9.48;;;2.33;;
43706;SDS011;61348;53.392;-6.248;2023-12-20T03:28:14;5.85;;;0.90;;
43706;SDS011;61348;53.392;-6.248;2023-12-20T03:30:42;6.40;;;1.70;;
43706;SDS011;61348;53.392;-6.248;2023-12-20T03:33:10;12.43;;;1.45;;
43706;SDS011;61348;53.392;-6.248;2023-12-20T03:35:38;4.57;;;1.33;;
43706;SDS011;61348;53.392;-6.248;2023-12-20T03:38:05;4.30;;;1.60;;
43706;SDS011;61348;53.392;-6.248;2023-12-20T03:40:32;15.80;;;2.38;;
43706;SDS011;61348;53.392;-6.248;2023-12-20T03:43:00;7.50;;;1.48;;
43706;SDS011;61348;53.392;-6.248;2023-12-20T03:45:28;13.82;;;2.85;;
43706;SDS011;61348;53.392;-6.248;2023-12-20T03:47:55;13.50;;;3.05;;
43706;SDS011;61348;53.392;-6.248;2023-12-20T03:50:23;6.03;;;1.90;;
43706;SDS011;61348;53.392;-6.248;2023-12-20T03:52:51;8.88;;;1.65;;
43706;SDS011;61348;53.392;-6.248;2023-12-20T03:55:18;9.02;;;1.48;;
43706;SDS011;61348;53.392;-6.248;2023-12-20T03:57:46;5.15;;;1.50;;
43706;SDS011;61348;53.392;-6.248;2023-12-20T04:00:13;13.93;;;2.45;;
43706;SDS011;61348;53.392;-6.248;2023-12-20T04:02:41;8.45;;;2.17;;
43706;SDS011;61348;53.392;-6.248;2023-12-20T04:05:09;7.78;;;1.63;;
43706;SDS011;61348;53.392;-6.248;2023-12-20T04:07:37;4.88;;;1.50;;
43706;SDS011;61348;53.392;-6.248;2023-12-20T04:10:05;7.57;;;1.48;;
43706;SDS011;61348;53.392;-6.248;2023-12-20T04:12:33;5.63;;;1.08;;
43706;SDS011;61348;53.392;-6.248;2023-12-20T04:15:00;12.30;;;1.38;;
43706;SDS011;61348;53.392;-6.248;2023-12-20T04:17:28;5.18;;;1.40;;
43706;SDS011;61348;53.392;-6.248;2023-12-20T04:19:55;10.80;;;1.25;;
43706;SDS011;61348;53.392;-6.248;2023-12-20T04:22:23;6.15;;;1.17;;
43706;SDS011;61348;53.392;-6.248;2023-12-20T04:24:50;11.02;;;2.10;;
43706;SDS011;61348;53.392;-6.248;2023-12-20T04:27:17;6.93;;;1.95;;
43706;SDS011;61348;53.392;-6.248;2023-12-20T04:29:45;5.55;;;1.95;;
43706;SDS011;61348;53.392;-6.248;2023-12-20T04:32:12;3.42;;;1.33;;
43706;SDS011;61348;53.392;-6.248;2023-12-20T04:34:39;6.78;;;1.55;;
43706;SDS011;61348;53.392;-6.248;2023-12-20T04:37:07;12.15;;;2.13;;
43706;SDS011;61348;53.392;-6.248;2023-12-20T04:39:34;10.05;;;1.25;;
43706;SDS011;61348;53.392;-6.248;2023-12-20T04:42:02;5.70;;;0.98;;
43706;SDS011;61348;53.392;-6.248;2023-12-20T04:44:29;5.70;;;1.13;;
43706;SDS011;61348;53.392;-6.248;2023-12-20T04:46:57;6.30;;;1.13;;
43706;SDS011;61348;53.392;-6.248;2023-12-20T04:49:24;5.90;;;2.17;;
43706;SDS011;61348;53.392;-6.248;2023-12-20T04:51:51;6.55;;;1.85;;
43706;SDS011;61348;53.392;-6.248;2023-12-20T04:54:19;7.65;;;1.75;;
43706;SDS011;61348;53.392;-6.248;2023-12-20T04:56:48;15.68;;;3.33;;
43706;SDS011;61348;53.392;-6.248;2023-12-20T04:59:15;6.47;;;1.13;;
43706;SDS011;61348;53.392;-6.248;2023-12-20T05:01:42;6.30;;;1.30;;
43706;SDS011;61348;53.392;-6.248;2023-12-20T05:04:10;8.07;;;1.45;;
43706;SDS011;61348;53.392;-6.248;2023-12-20T05:06:37;10.55;;;1.52;;
43706;SDS011;61348;53.392;-6.248;2023-12-20T05:09:05;4.82;;;0.77;;
43706;SDS011;61348;53.392;-6.248;2023-12-20T05:11:33;8.43;;;1.10;;
43706;SDS011;61348;53.392;-6.248;2023-12-20T05:14:00;11.38;;;2.10;;
43706;SDS011;61348;53.392;-6.248;2023-12-20T05:16:29;5.60;;;1.08;;
43706;SDS011;61348;53.392;-6.248;2023-12-20T05:18:56;13.05;;;1.30;;
43706;SDS011;61348;53.392;-6.248;2023-12-20T05:21:23;6.93;;;1.55;;
43706;SDS011;61348;53.392;-6.248;2023-12-20T05:23:51;10.35;;;1.38;;
43706;SDS011;61348;53.392;-6.248;2023-12-20T05:26:18;4.82;;;0.93;;
43706;SDS011;61348;53.392;-6.248;2023-12-20T05:28:45;7.00;;;0.93;;
43706;SDS011;61348;53.392;-6.248;2023-12-20T05:31:13;5.03;;;1.02;;
43706;SDS011;61348;53.392;-6.248;2023-12-20T05:33:40;7.18;;;2.33;;
43706;SDS011;61348;53.392;-6.248;2023-12-20T05:36:08;6.72;;;1.00;;
43706;SDS011;61348;53.392;-6.248;2023-12-20T05:38:38;9.43;;;2.05;;
43706;SDS011;61348;53.392;-6.248;2023-12-20T05:41:05;11.70;;;2.13;;
43706;SDS011;61348;53.392;-6.248;2023-12-20T05:43:33;9.98;;;1.40;;
43706;SDS011;61348;53.392;-6.248;2023-12-20T05:46:00;8.30;;;2.45;;
43706;SDS011;61348;53.392;-6.248;2023-12-20T05:48:27;11.48;;;1.45;;
43706;SDS011;61348;53.392;-6.248;2023-12-20T05:50:55;8.45;;;1.40;;
43706;SDS011;61348;53.392;-6.248;2023-12-20T05:53:22;9.65;;;2.20;;
43706;SDS011;61348;53.392;-6.248;2023-12-20T05:55:49;5.30;;;1.55;;
43706;SDS011;61348;53.392;-6.248;2023-12-20T05:58:17;8.80;;;1.45;;
43706;SDS011;61348;53.392;-6.248;2023-12-20T06:00:45;8.38;;;1.25;;
43706;SDS011;61348;53.392;-6.248;2023-12-20T06:03:12;9.88;;;1.65;;
43706;SDS011;61348;53.392;-6.248;2023-12-20T06:05:40;11.75;;;1.70;;
43706;SDS011;61348;53.392;-6.248;2023-12-20T06:08:07;16.98;;;3.42;;
43706;SDS011;61348;53.392;-6.248;2023-12-20T06:10:34;10.10;;;1.80;;
43706;SDS011;61348;53.392;-6.248;2023-12-20T06:13:01;9.85;;;1.42;;
43706;SDS011;61348;53.392;-6.248;2023-12-20T06:15:31;7.03;;;1.70;;
43706;SDS011;61348;53.392;-6.248;2023-12-20T06:17:58;12.52;;;2.08;;
43706;SDS011;61348;53.392;-6.248;2023-12-20T06:20:26;9.15;;;1.38;;
43706;SDS011;61348;53.392;-6.248;2023-12-20T06:22:53;8.18;;;1.95;;
43706;SDS011;61348;53.392;-6.248;2023-12-20T06:25:20;6.38;;;2.15;;
43706;SDS011;61348;53.392;-6.248;2023-12-20T06:27:48;11.82;;;1.35;;
43706;SDS011;61348;53.392;-6.248;2023-12-20T06:30:16;17.85;;;3.97;;
43706;SDS011;61348;53.392;-6.248;2023-12-20T06:32:43;12.98;;;1.58;;
43706;SDS011;61348;53.392;-6.248;2023-12-20T06:35:11;9.68;;;1.33;;
43706;SDS011;61348;53.392;-6.248;2023-12-20T06:37:38;13.13;;;1.95;;
43706;SDS011;61348;53.392;-6.248;2023-12-20T06:40:09;7.68;;;2.20;;
43706;SDS011;61348;53.392;-6.248;2023-12-20T06:42:44;10.95;;;1.77;;
43706;SDS011;61348;53.392;-6.248;2023-12-20T06:45:25;22.80;;;2.55;;
43706;SDS011;61348;53.392;-6.248;2023-12-20T06:47:52;16.40;;;2.03;;
43706;SDS011;61348;53.392;-6.248;2023-12-20T06:50:19;6.78;;;1.17;;
43706;SDS011;61348;53.392;-6.248;2023-12-20T06:52:47;5.45;;;1.42;;
43706;SDS011;61348;53.392;-6.248;2023-12-20T06:55:14;3.65;;;1.42;;
43706;SDS011;61348;53.392;-6.248;2023-12-20T06:57:42;7.22;;;1.45;;
43706;SDS011;61348;53.392;-6.248;2023-12-20T07:00:10;6.57;;;1.45;;
43706;SDS011;61348;53.392;-6.248;2023-12-20T07:02:38;8.95;;;1.45;;
43706;SDS011;61348;53.392;-6.248;2023-12-20T07:05:06;10.68;;;2.60;;
43706;SDS011;61348;53.392;-6.248;2023-12-20T07:07:33;10.00;;;3.70;;
43706;SDS011;61348;53.392;-6.248;2023-12-20T07:10:02;5.75;;;1.70;;
43706;SDS011;61348;53.392;-6.248;2023-12-20T07:12:29;8.35;;;1.98;;
43706;SDS011;61348;53.392;-6.248;2023-12-20T07:14:57;9.35;;;2.55;;
43706;SDS011;61348;53.392;-6.248;2023-12-20T07:17:24;2.65;;;1.73;;
43706;SDS011;61348;53.392;-6.248;2023-12-20T07:19:51;5.60;;;1.50;;
43706;SDS011;61348;53.392;-6.248;2023-12-20T07:22:19;3.30;;;0.93;;
43706;SDS011;61348;53.392;-6.248;2023-12-20T07:24:46;6.85;;;1.23;;
43706;SDS011;61348;53.392;-6.248;2023-12-20T07:27:15;7.95;;;1.00;;
43706;SDS011;61348;53.392;-6.248;2023-12-20T07:29:42;4.95;;;1.17;;
43706;SDS011;61348;53.392;-6.248;2023-12-20T07:32:09;9.13;;;1.10;;
43706;SDS011;61348;53.392;-6.248;2023-12-20T07:34:37;5.20;;;1.13;;
43706;SDS011;61348;53.392;-6.248;2023-12-20T07:37:06;6.90;;;2.25;;
43706;SDS011;61348;53.392;-6.248;2023-12-20T07:39:33;1.95;;;0.73;;
43706;SDS011;61348;53.392;-6.248;2023-12-20T07:42:01;2.97;;;0.88;;
43706;SDS011;61348;53.392;-6.248;2023-12-20T07:44:29;2.05;;;0.73;;
43706;SDS011;61348;53.392;-6.248;2023-12-20T07:46:56;4.82;;;0.73;;
43706;SDS011;61348;53.392;-6.248;2023-12-20T07:49:24;2.47;;;1.08;;
43706;SDS011;61348;53.392;-6.248;2023-12-20T07:51:52;6.82;;;0.95;;
43706;SDS011;61348;53.392;-6.248;2023-12-20T07:54:21;5.45;;;0.85;;
43706;SDS011;61348;53.392;-6.248;2023-12-20T07:56:49;7.07;;;1.30;;
43706;SDS011;61348;53.392;-6.248;2023-12-20T07:59:16;8.63;;;2.05;;
43706;SDS011;61348;53.392;-6.248;2023-12-20T08:01:55;7.13;;;1.67;;
43706;SDS011;61348;53.392;-6.248;2023-12-20T08:04:23;14.15;;;2.28;;
43706;SDS011;61348;53.392;-6.248;2023-12-20T08:06:51;7.50;;;2.20;;
43706;SDS011;61348;53.392;-6.248;2023-12-20T08:09:18;11.20;;;2.60;;
43706;SDS011;61348;53.392;-6.248;2023-12-20T08:11:46;12.65;;;2.00;;
43706;SDS011;61348;53.392;-6.248;2023-12-20T08:14:15;8.45;;;1.77;;
43706;SDS011;61348;53.392;-6.248;2023-12-20T08:16:43;12.68;;;3.35;;
43706;SDS011;61348;53.392;-6.248;2023-12-20T08:19:10;8.30;;;2.42;;
43706;SDS011;61348;53.392;-6.248;2023-12-20T08:21:37;8.50;;;2.15;;
43706;SDS011;61348;53.392;-6.248;2023-12-20T08:24:05;7.68;;;1.88;;
43706;SDS011;61348;53.392;-6.248;2023-12-20T08:26:33;12.10;;;2.50;;
43706;SDS011;61348;53.392;-6.248;2023-12-20T08:29:00;13.35;;;2.63;;
43706;SDS011;61348;53.392;-6.248;2023-12-20T08:31:28;17.70;;;2.83;;
43706;SDS011;61348;53.392;-6.248;2023-12-20T08:33:56;15.30;;;3.80;;
43706;SDS011;61348;53.392;-6.248;2023-12-20T08:36:25;9.52;;;2.22;;
43706;SDS011;61348;53.392;-6.248;2023-12-20T08:38:52;13.25;;;2.50;;
43706;SDS011;61348;53.392;-6.248;2023-12-20T08:41:21;14.95;;;3.08;;
43706;SDS011;61348;53.392;-6.248;2023-12-20T08:43:48;13.23;;;2.95;;
43706;SDS011;61348;53.392;-6.248;2023-12-20T08:46:15;17.23;;;3.17;;
43706;SDS011;61348;53.392;-6.248;2023-12-20T08:48:43;9.50;;;2.25;;
43706;SDS011;61348;53.392;-6.248;2023-12-20T08:51:11;16.65;;;2.90;;
43706;SDS011;61348;53.392;-6.248;2023-12-20T08:53:39;10.75;;;2.15;;
43706;SDS011;61348;53.392;-6.248;2023-12-20T08:56:07;12.68;;;2.90;;
43706;SDS011;61348;53.392;-6.248;2023-12-20T08:58:34;17.63;;;2.28;;
43706;SDS011;61348;53.392;-6.248;2023-12-20T09:01:03;16.27;;;4.32;;
43706;SDS011;61348;53.392;-6.248;2023-12-20T09:03:31;20.10;;;3.28;;
43706;SDS011;61348;53.392;-6.248;2023-12-20T09:05:58;12.15;;;3.28;;
43706;SDS011;61348;53.392;-6.248;2023-12-20T09:08:27;12.43;;;2.58;;
43706;SDS011;61348;53.392;-6.248;2023-12-20T09:10:54;14.15;;;2.63;;
43706;SDS011;61348;53.392;-6.248;2023-12-20T09:13:22;10.73;;;2.65;;
43706;SDS011;61348;53.392;-6.248;2023-12-20T09:15:55;11.25;;;2.70;;
43706;SDS011;61348;53.392;-6.248;2023-12-20T09:18:23;17.70;;;2.85;;
43706;SDS011;61348;53.392;-6.248;2023-12-20T09:20:51;14.90;;;2.60;;
43706;SDS011;61348;53.392;-6.248;2023-12-20T09:23:19;13.32;;;2.88;;
43706;SDS011;61348;53.392;-6.248;2023-12-20T09:25:46;12.52;;;3.40;;
43706;SDS011;61348;53.392;-6.248;2023-12-20T09:28:13;14.20;;;3.45;;
43706;SDS011;61348;53.392;-6.248;2023-12-20T09:30:41;12.77;;;3.70;;
43706;SDS011;61348;53.392;-6.248;2023-12-20T09:33:09;14.15;;;2.90;;
43706;SDS011;61348;53.392;-6.248;2023-12-20T09:35:36;17.00;;;3.53;;
43706;SDS011;61348;53.392;-6.248;2023-12-20T09:38:04;16.15;;;3.65;;
43706;SDS011;61348;53.392;-6.248;2023-12-20T09:40:32;12.30;;;3.30;;
43706;SDS011;61348;53.392;-6.248;2023-12-20T09:43:04;15.60;;;3.38;;
43706;SDS011;61348;53.392;-6.248;2023-12-20T09:45:32;15.80;;;3.50;;
43706;SDS011;61348;53.392;-6.248;2023-12-20T09:47:59;24.20;;;4.88;;
43706;SDS011;61348;53.392;-6.248;2023-12-20T09:50:28;15.75;;;3.15;;
43706;SDS011;61348;53.392;-6.248;2023-12-20T09:52:59;16.48;;;2.85;;
43706;SDS011;61348;53.392;-6.248;2023-12-20T09:55:29;19.38;;;3.20;;
43706;SDS011;61348;53.392;-6.248;2023-12-20T09:57:59;21.67;;;4.05;;
43706;SDS011;61348;53.392;-6.248;2023-12-20T10:00:27;17.27;;;4.47;;
43706;SDS011;61348;53.392;-6.248;2023-12-20T10:02:58;17.00;;;4.25;;
43706;SDS011;61348;53.392;-6.248;2023-12-20T10:07:59;20.73;;;4.55;;
43706;SDS011;61348;53.392;-6.248;2023-12-20T10:10:29;18.10;;;5.20;;
43706;SDS011;61348;53.392;-6.248;2023-12-20T10:13:11;20.95;;;4.50;;
43706;SDS011;61348;53.392;-6.248;2023-12-20T10:15:40;17.83;;;3.05;;
43706;SDS011;61348;53.392;-6.248;2023-12-20T10:18:09;24.75;;;4.25;;
43706;SDS011;61348;53.392;-6.248;2023-12-20T10:20:39;16.58;;;3.08;;
43706;SDS011;61348;53.392;-6.248;2023-12-20T10:23:07;12.00;;;3.38;;
43706;SDS011;61348;53.392;-6.248;2023-12-20T10:25:35;17.23;;;3.60;;
43706;SDS011;61348;53.392;-6.248;2023-12-20T10:28:09;18.15;;;4.05;;
43706;SDS011;61348;53.392;-6.248;2023-12-20T10:30:41;18.30;;;3.45;;
43706;SDS011;61348;53.392;-6.248;2023-12-20T10:33:10;19.23;;;3.40;;
43706;SDS011;61348;53.392;-6.248;2023-12-20T10:35:39;21.67;;;4.22;;
43706;SDS011;61348;53.392;-6.248;2023-12-20T10:38:12;16.42;;;4.30;;
43706;SDS011;61348;53.392;-6.248;2023-12-20T10:40:42;15.63;;;3.92;;
43706;SDS011;61348;53.392;-6.248;2023-12-20T10:43:11;23.75;;;3.97;;
43706;SDS011;61348;53.392;-6.248;2023-12-20T10:45:39;16.40;;;3.45;;
43706;SDS011;61348;53.392;-6.248;2023-12-20T10:48:10;17.75;;;4.38;;
43706;SDS011;61348;53.392;-6.248;2023-12-20T10:50:39;20.92;;;5.18;;
43706;SDS011;61348;53.392;-6.248;2023-12-20T10:53:08;13.15;;;4.32;;
43706;SDS011;61348;53.392;-6.248;2023-12-20T10:55:35;15.43;;;3.83;;
43706;SDS011;61348;53.392;-6.248;2023-12-20T10:58:06;32.63;;;6.47;;
43706;SDS011;61348;53.392;-6.248;2023-12-20T11:03:08;23.05;;;5.78;;
43706;SDS011;61348;53.392;-6.248;2023-12-20T11:08:26;24.48;;;4.53;;
43706;SDS011;61348;53.392;-6.248;2023-12-20T11:11:07;33.83;;;5.88;;
43706;SDS011;61348;53.392;-6.248;2023-12-20T11:13:48;23.38;;;4.53;;
43706;SDS011;61348;53.392;-6.248;2023-12-20T11:16:22;20.67;;;4.80;;
43706;SDS011;61348;53.392;-6.248;2023-12-20T11:18:52;18.83;;;4.43;;
43706;SDS011;61348;53.392;-6.248;2023-12-20T11:21:19;23.10;;;6.35;;
43706;SDS011;61348;53.392;-6.248;2023-12-20T11:23:47;25.35;;;5.03;;
43706;SDS011;61348;53.392;-6.248;2023-12-20T11:26:15;30.88;;;5.80;;
43706;SDS011;61348;53.392;-6.248;2023-12-20T11:28:44;27.15;;;6.70;;
43706;SDS011;61348;53.392;-6.248;2023-12-20T11:31:12;26.05;;;5.93;;
43706;SDS011;61348;53.392;-6.248;2023-12-20T11:33:42;32.22;;;7.30;;
43706;SDS011;61348;53.392;-6.248;2023-12-20T11:36:14;18.02;;;4.45;;
43706;SDS011;61348;53.392;-6.248;2023-12-20T11:38:57;21.75;;;4.47;;
43706;SDS011;61348;53.392;-6.248;2023-12-20T11:41:25;15.35;;;3.95;;
43706;SDS011;61348;53.392;-6.248;2023-12-20T11:43:53;24.48;;;7.28;;
43706;SDS011;61348;53.392;-6.248;2023-12-20T11:46:21;27.02;;;5.43;;
43706;SDS011;61348;53.392;-6.248;2023-12-20T11:48:49;28.45;;;7.50;;
43706;SDS011;61348;53.392;-6.248;2023-12-20T11:51:17;21.13;;;4.65;;
43706;SDS011;61348;53.392;-6.248;2023-12-20T11:53:45;28.80;;;6.93;;
43706;SDS011;61348;53.392;-6.248;2023-12-20T11:56:19;34.13;;;8.60;;
43706;SDS011;61348;53.392;-6.248;2023-12-20T11:58:47;18.33;;;4.25;;
43706;SDS011;61348;53.392;-6.248;2023-12-20T12:01:19;31.27;;;6.18;;
43706;SDS011;61348;53.392;-6.248;2023-12-20T12:03:47;23.38;;;6.40;;
43706;SDS011;61348;53.392;-6.248;2023-12-20T12:06:14;30.40;;;6.68;;
43706;SDS011;61348;53.392;-6.248;2023-12-20T12:08:41;25.23;;;5.93;;
43706;SDS011;61348;53.392;-6.248;2023-12-20T12:11:09;27.85;;;5.03;;
43706;SDS011;61348;53.392;-6.248;2023-12-20T12:13:36;25.75;;;5.10;;
43706;SDS011;61348;53.392;-6.248;2023-12-20T12:16:04;27.77;;;6.03;;
43706;SDS011;61348;53.392;-6.248;2023-12-20T12:18:31;30.75;;;6.20;;
43706;SDS011;61348;53.392;-6.248;2023-12-20T12:20:59;32.97;;;7.30;;
43706;SDS011;61348;53.392;-6.248;2023-12-20T12:23:28;27.48;;;6.97;;
43706;SDS011;61348;53.392;-6.248;2023-12-20T12:25:55;28.77;;;7.05;;
43706;SDS011;61348;53.392;-6.248;2023-12-20T12:28:25;29.13;;;6.07;;
43706;SDS011;61348;53.392;-6.248;2023-12-20T12:30:58;40.90;;;10.18;;
43706;SDS011;61348;53.392;-6.248;2023-12-20T12:33:26;31.60;;;7.82;;
43706;SDS011;61348;53.392;-6.248;2023-12-20T12:35:54;25.95;;;5.10;;
43706;SDS011;61348;53.392;-6.248;2023-12-20T12:38:22;25.88;;;6.60;;
43706;SDS011;61348;53.392;-6.248;2023-12-20T12:40:50;25.85;;;5.28;;
43706;SDS011;61348;53.392;-6.248;2023-12-20T12:43:20;22.23;;;6.28;;
43706;SDS011;61348;53.392;-6.248;2023-12-20T12:45:49;38.90;;;7.25;;
43706;SDS011;61348;53.392;-6.248;2023-12-20T12:48:17;27.95;;;5.13;;
43706;SDS011;61348;53.392;-6.248;2023-12-20T12:50:47;34.78;;;6.00;;
43706;SDS011;61348;53.392;-6.248;2023-12-20T12:53:15;31.92;;;5.53;;
43706;SDS011;61348;53.392;-6.248;2023-12-20T12:55:42;21.55;;;4.60;;
43706;SDS011;61348;53.392;-6.248;2023-12-20T12:58:09;24.30;;;5.63;;
43706;SDS011;61348;53.392;-6.248;2023-12-20T13:00:38;25.85;;;6.28;;
43706;SDS011;61348;53.392;-6.248;2023-12-20T13:03:05;26.55;;;5.88;;
43706;SDS011;61348;53.392;-6.248;2023-12-20T13:05:33;26.85;;;5.18;;
43706;SDS011;61348;53.392;-6.248;2023-12-20T13:08:06;29.70;;;5.57;;
43706;SDS011;61348;53.392;-6.248;2023-12-20T13:10:33;23.23;;;6.00;;
43706;SDS011;61348;53.392;-6.248;2023-12-20T13:13:01;24.63;;;4.63;;
43706;SDS011;61348;53.392;-6.248;2023-12-20T13:15:28;16.23;;;3.90;;
43706;SDS011;61348;53.392;-6.248;2023-12-20T13:17:55;23.25;;;4.72;;
43706;SDS011;61348;53.392;-6.248;2023-12-20T13:20:23;19.50;;;4.65;;
43706;SDS011;61348;53.392;-6.248;2023-12-20T13:22:50;18.10;;;4.63;;
43706;SDS011;61348;53.392;-6.248;2023-12-20T13:25:18;24.60;;;5.32;;
43706;SDS011;61348;53.392;-6.248;2023-12-20T13:27:45;27.35;;;6.80;;
43706;SDS011;61348;53.392;-6.248;2023-12-20T13:30:15;13.27;;;3.42;;
43706;SDS011;61348;53.392;-6.248;2023-12-20T13:35:12;15.85;;;3.72;;
43706;SDS011;61348;53.392;-6.248;2023-12-20T13:37:40;14.43;;;3.88;;
43706;SDS011;61348;53.392;-6.248;2023-12-20T13:40:08;15.50;;;4.78;;
43706;SDS011;61348;53.392;-6.248;2023-12-20T13:42:35;16.67;;;5.05;;
43706;SDS011;61348;53.392;-6.248;2023-12-20T13:45:03;18.75;;;4.22;;
43706;SDS011;61348;53.392;-6.248;2023-12-20T13:47:32;27.95;;;5.47;;
43706;SDS011;61348;53.392;-6.248;2023-12-20T13:49:59;25.73;;;4.88;;
43706;SDS011;61348;53.392;-6.248;2023-12-20T13:52:27;25.55;;;6.00;;
43706;SDS011;61348;53.392;-6.248;2023-12-20T13:54:55;18.10;;;4.13;;
43706;SDS011;61348;53.392;-6.248;2023-12-20T13:57:22;17.48;;;4.75;;
43706;SDS011;61348;53.392;-6.248;2023-12-20T14:00:09;14.38;;;3.80;;
43706;SDS011;61348;53.392;-6.248;2023-12-20T14:02:42;16.83;;;4.32;;
43706;SDS011;61348;53.392;-6.248;2023-12-20T14:05:09;30.67;;;5.60;;
43706;SDS011;61348;53.392;-6.248;2023-12-20T14:07:37;17.83;;;5.00;;
43706;SDS011;61348;53.392;-6.248;2023-12-20T14:10:05;13.93;;;6.10;;
43706;SDS011;61348;53.392;-6.248;2023-12-20T14:12:33;24.15;;;5.13;;
43706;SDS011;61348;53.392;-6.248;2023-12-20T14:15:03;15.30;;;4.70;;
43706;SDS011;61348;53.392;-6.248;2023-12-20T14:17:31;20.80;;;5.13;;
43706;SDS011;61348;53.392;-6.248;2023-12-20T14:19:58;20.63;;;4.63;;
43706;SDS011;61348;53.392;-6.248;2023-12-20T14:22:26;13.40;;;4.20;;
43706;SDS011;61348;53.392;-6.248;2023-12-20T14:24:56;17.50;;;4.80;;
43706;SDS011;61348;53.392;-6.248;2023-12-20T14:27:24;23.60;;;4.32;;
43706;SDS011;61348;53.392;-6.248;2023-12-20T14:29:54;20.52;;;3.30;;
43706;SDS011;61348;53.392;-6.248;2023-12-20T14:32:22;20.58;;;3.78;;
43706;SDS011;61348;53.392;-6.248;2023-12-20T14:34:49;17.77;;;4.40;;
43706;SDS011;61348;53.392;-6.248;2023-12-20T14:37:16;22.85;;;4.82;;
43706;SDS011;61348;53.392;-6.248;2023-12-20T14:39:44;10.68;;;2.40;;
43706;SDS011;61348;53.392;-6.248;2023-12-20T14:42:11;10.75;;;2.95;;